Terminal Aerodrome Forecast
Issued by NWS

Home | Current Version | Previous Version | Graphics & Text | Print | Product List | Glossary On
Versions: 1 2 3 4 5 6 7 8 9 10 11 12 13
000
FTUS45 KGGW 280500
TAFSDY
TAF
KSDY 280520Z 2806/2906 19006KT P6SM SCT080
     FM281600 23007KT P6SM SKC
     FM281900 27010KT P6SM SKC
     FM290300 30010KT P6SM SCT100
      AMD LTD TO CLD VIS AND WIND=

USA.gov is the U.S. government's official web portal to all federal, state and local government web resources and services.